Time;durP1;ratioP1;P1;durP2;ratioP2;P2;SDS_P1;SDS_P2;PMS_P1;PMS_P2;Temp;Humidity;BMP_temperature;BMP_pressure;BME280_temperature;BME280_humidity;BME280_pressure;Samples;Min_cycle;Max_cycle;Signal;HPM_P1;HPM_P2
2023/04/03 00:00:56;;;;;;;7.18;2.55;;;3.00;99.90;;;;;;4958695;29;20046;-86
2023/04/03 00:03:22;;;;;;;5.15;2.28;;;3.00;99.90;;;;;;4943308;29;20027;-86
2023/04/03 00:05:48;;;;;;;8.75;2.28;;;3.00;99.90;;;;;;4959287;29;20031;-86
2023/04/03 00:08:14;;;;;;;8.98;2.20;;;3.00;99.90;;;;;;4942350;29;20074;-86
2023/04/03 00:10:40;;;;;;;4.07;2.38;;;3.00;99.90;;;;;;4957560;28;20134;-86
2023/04/03 00:13:07;;;;;;;12.93;2.35;;;3.00;99.90;;;;;;4958987;28;20031;-86
2023/04/03 00:15:33;;;;;;;8.88;2.38;;;3.00;99.90;;;;;;4957963;29;20075;-86
2023/04/03 00:17:59;;;;;;;7.60;2.30;;;3.00;99.90;;;;;;4956879;29;20098;-86
2023/04/03 00:20:27;;;;;;;8.50;2.58;;;2.90;99.90;;;;;;4940742;29;20442;-86
2023/04/03 00:22:52;;;;;;;6.18;1.92;;;2.90;99.90;;;;;;4956751;29;20027;-86
2023/04/03 00:25:18;;;;;;;5.28;2.17;;;2.80;99.90;;;;;;4957029;29;20038;-87
2023/04/03 00:27:44;;;;;;;5.95;2.50;;;2.80;99.90;;;;;;4957650;29;20053;-86
2023/04/03 00:30:13;;;;;;;6.60;2.10;;;2.70;99.90;;;;;;4941751;29;20477;-86
2023/04/03 00:32:39;;;;;;;7.05;2.15;;;2.70;99.90;;;;;;4956661;29;20460;-86
2023/04/03 00:35:05;;;;;;;7.15;2.13;;;2.60;99.90;;;;;;4956912;29;20062;-86
2023/04/03 00:37:31;;;;;;;11.93;2.13;;;2.50;99.90;;;;;;4957770;28;20035;-86
2023/04/03 00:39:57;;;;;;;10.20;2.28;;;2.50;99.90;;;;;;4957774;28;20038;-86
2023/04/03 00:42:22;;;;;;;6.68;2.25;;;2.50;99.90;;;;;;4956545;29;20030;-86
2023/04/03 00:44:48;;;;;;;5.97;2.58;;;2.40;99.90;;;;;;4940665;29;20034;-86
2023/04/03 00:47:17;;;;;;;8.95;3.10;;;2.40;99.90;;;;;;4956698;28;20370;-86
2023/04/03 00:49:44;;;;;;;7.35;2.17;;;2.30;99.90;;;;;;4956287;29;20397;-86
2023/04/03 00:52:15;;;;;;;6.60;2.50;;;2.30;99.90;;;;;;4955934;29;20030;-86
2023/04/03 00:54:40;;;;;;;;;;;2.20;99.90;;;;;;4957008;28;20389;-86
2023/04/03 00:57:07;;;;;;;7.18;2.75;;;2.20;99.90;;;;;;4955891;29;19906;-87
2023/04/03 00:59:38;;;;;;;7.93;2.17;;;2.10;99.90;;;;;;4956184;29;20601;-86
2023/04/03 01:02:04;;;;;;;5.07;2.13;;;2.10;99.90;;;;;;4955658;29;20035;-85
2023/04/03 01:04:39;;;;;;;9.18;2.08;;;2.00;99.90;;;;;;4939274;29;20031;-86
2023/04/03 01:07:09;;;;;;;6.75;2.75;;;1.90;99.90;;;;;;4955010;29;20027;-86
2023/04/03 01:09:35;;;;;;;9.88;3.08;;;1.90;99.90;;;;;;4956585;29;20563;-85
2023/04/03 01:12:26;;;;;;;8.13;3.30;;;1.80;99.90;;;;;;4955356;28;20055;-86
2023/04/03 01:15:00;;;;;;;7.95;3.13;;;1.70;99.90;;;;;;4956569;29;20117;-86
2023/04/03 01:17:35;;;;;;;4.82;2.17;;;1.70;99.90;;;;;;4957246;29;20042;-85
2023/04/03 01:20:22;;;;;;;6.95;2.63;;;1.70;99.90;;;;;;4957857;29;20497;-86
2023/04/03 01:23:02;;;;;;;6.03;2.72;;;1.60;99.90;;;;;;4957013;29;20023;-86
2023/04/03 01:25:28;;;;;;;;;;;1.60;99.90;;;;;;4956934;29;20033;-85
2023/04/03 01:27:54;;;;;;;7.10;3.15;;;1.60;99.90;;;;;;4955954;29;19907;-87
2023/04/03 01:30:23;;;;;;;7.43;2.80;;;1.60;99.90;;;;;;4956016;29;20114;-86
2023/04/03 01:32:49;;;;;;;8.85;2.78;;;1.60;99.90;;;;;;4955888;29;20123;-86
2023/04/03 01:35:15;;;;;;;6.57;2.35;;;1.70;99.90;;;;;;4955429;29;20453;-86
2023/04/03 01:37:40;;;;;;;19.00;3.72;;;1.70;99.90;;;;;;4955049;29;20046;-86
2023/04/03 01:40:07;;;;;;;8.88;2.35;;;1.70;99.90;;;;;;4955244;29;20126;-86
2023/04/03 01:42:33;;;;;;;7.75;2.25;;;1.80;99.90;;;;;;4939347;29;20488;-87
2023/04/03 01:44:59;;;;;;;4.68;2.30;;;1.80;99.90;;;;;;4954531;29;20110;-86
2023/04/03 01:47:25;;;;;;;6.28;2.55;;;1.80;99.90;;;;;;4954510;28;20114;-86
2023/04/03 01:49:50;;;;;;;9.95;2.53;;;1.80;99.90;;;;;;4954812;29;20031;-86
2023/04/03 01:52:16;;;;;;;9.32;2.58;;;1.80;99.90;;;;;;4954349;29;20039;-86
2023/04/03 01:54:42;;;;;;;7.72;2.55;;;1.80;99.90;;;;;;4954170;29;20118;-86
2023/04/03 01:57:07;;;;;;;10.43;2.30;;;1.80;99.90;;;;;;4954330;29;20027;-86
2023/04/03 01:59:33;;;;;;;7.47;2.10;;;1.80;99.90;;;;;;4954273;29;20047;-87
2023/04/03 02:01:59;;;;;;;8.00;2.28;;;1.70;99.90;;;;;;4954435;29;20023;-86
2023/04/03 02:04:25;;;;;;;6.30;2.60;;;1.70;99.90;;;;;;4954249;29;20139;-87
2023/04/03 02:06:51;;;;;;;5.10;2.30;;;1.60;99.90;;;;;;4953248;28;20039;-86
2023/04/03 02:09:17;;;;;;;7.43;2.28;;;1.60;99.90;;;;;;4954620;29;20027;-86
2023/04/03 02:11:42;;;;;;;6.40;2.10;;;1.50;99.90;;;;;;4955283;28;20051;-86
2023/04/03 02:14:08;;;;;;;7.80;2.10;;;1.50;99.90;;;;;;4973186;28;20505;-86
2023/04/03 02:16:34;;;;;;;4.18;2.40;;;1.50;99.90;;;;;;4957155;28;20022;-86
2023/04/03 02:18:59;;;;;;;9.98;2.42;;;1.40;99.90;;;;;;4956713;28;20030;-86
2023/04/03 02:21:25;;;;;;;5.55;2.10;;;1.30;99.90;;;;;;4973418;28;20038;-86
2023/04/03 02:23:51;;;;;;;6.60;2.10;;;1.30;99.90;;;;;;4972989;28;20038;-86
2023/04/03 02:26:17;;;;;;;4.90;1.75;;;1.20;99.90;;;;;;4972900;28;20031;-86
2023/04/03 02:28:43;;;;;;;8.07;2.40;;;1.20;99.90;;;;;;4956922;28;20030;-85
2023/04/03 02:31:09;;;;;;;7.25;1.73;;;1.10;99.90;;;;;;4973167;28;20038;-85
2023/04/03 02:33:36;;;;;;;2.92;1.80;;;1.10;99.90;;;;;;4973010;28;20019;-85
2023/04/03 02:36:03;;;;;;;5.40;2.13;;;1.10;99.90;;;;;;4972953;28;20385;-85
2023/04/03 02:38:29;;;;;;;4.40;1.98;;;1.10;99.90;;;;;;4973264;28;20042;-86
2023/04/03 02:41:01;;;;;;;10.27;2.20;;;1.00;99.90;;;;;;4956953;28;20027;-86
2023/04/03 02:43:26;;;;;;;10.55;2.30;;;1.00;99.90;;;;;;4973004;28;20095;-86
2023/04/03 02:45:52;;;;;;;11.23;2.97;;;1.00;99.90;;;;;;4961584;28;20059;-85
2023/04/03 02:48:18;;;;;;;7.82;2.83;;;1.00;99.90;;;;;;4962369;28;20357;-86
2023/04/03 02:50:43;;;;;;;4.35;2.65;;;0.90;99.90;;;;;;4972528;28;20392;-85
2023/04/03 02:53:09;;;;;;;6.50;2.92;;;0.90;99.90;;;;;;4972227;28;20087;-86
2023/04/03 02:55:35;;;;;;;9.20;2.63;;;0.80;99.90;;;;;;4973360;28;20037;-87
2023/04/03 02:58:00;;;;;;;7.80;2.25;;;0.80;99.90;;;;;;4972288;28;20110;-85
2023/04/03 03:00:26;;;;;;;4.88;2.42;;;0.70;99.90;;;;;;4972691;28;20031;-86
2023/04/03 03:02:52;;;;;;;9.63;2.83;;;0.70;99.90;;;;;;4972019;28;20537;-86
2023/04/03 03:05:17;;;;;;;6.32;2.65;;;0.70;99.90;;;;;;4971995;28;20499;-86
2023/04/03 03:07:43;;;;;;;8.25;3.17;;;0.70;99.90;;;;;;4972551;28;20066;-87
2023/04/03 03:10:09;;;;;;;4.85;2.60;;;0.70;99.90;;;;;;4975833;28;20049;-87
2023/04/03 03:12:35;;;;;;;7.68;2.97;;;0.70;99.90;;;;;;4991872;28;20049;-86
2023/04/03 03:15:00;;;;;;;8.65;2.75;;;0.70;99.90;;;;;;4991977;28;20121;-86
2023/04/03 03:17:26;;;;;;;5.78;2.67;;;0.70;99.90;;;;;;4977445;28;20026;-86
2023/04/03 03:19:53;;;;;;;7.25;3.05;;;0.70;99.90;;;;;;4995528;28;20038;-86
2023/04/03 03:22:19;;;;;;;4.00;1.75;;;0.70;99.90;;;;;;4995183;28;20026;-86
2023/04/03 03:24:45;;;;;;;10.43;2.63;;;0.70;99.90;;;;;;4979141;28;20129;-86
2023/04/03 03:27:11;;;;;;;6.90;2.20;;;0.70;99.90;;;;;;4995334;28;20030;-86
2023/04/03 03:29:37;;;;;;;8.15;2.22;;;0.70;99.90;;;;;;4995379;28;20019;-85
2023/04/03 03:32:03;;;;;;;6.18;2.28;;;0.70;99.90;;;;;;4995654;28;20780;-86
2023/04/03 03:34:29;;;;;;;8.60;2.88;;;0.60;99.90;;;;;;4995659;28;20514;-86
2023/04/03 03:36:55;;;;;;;9.27;3.40;;;0.60;99.90;;;;;;4996998;28;20030;-86
2023/04/03 03:39:20;;;;;;;8.90;3.10;;;0.60;99.90;;;;;;4994721;28;20078;-86
2023/04/03 03:41:47;;;;;;;4.18;2.38;;;0.50;99.90;;;;;;4996341;28;20023;-85
2023/04/03 03:44:12;;;;;;;11.18;2.40;;;0.50;99.90;;;;;;4994791;28;20030;-86
2023/04/03 03:46:38;;;;;;;6.25;2.15;;;0.40;99.90;;;;;;4994606;28;20073;-85
2023/04/03 03:49:04;;;;;;;5.95;2.05;;;0.40;99.90;;;;;;4994617;28;20070;-85
2023/04/03 03:51:29;;;;;;;10.98;2.40;;;0.30;99.90;;;;;;4995250;28;20029;-85
2023/04/03 03:53:55;;;;;;;8.20;2.85;;;0.30;99.90;;;;;;4994388;28;20121;-85
2023/04/03 03:56:21;;;;;;;7.47;2.80;;;0.30;99.90;;;;;;4994590;28;20054;-84
2023/04/03 03:58:47;;;;;;;8.02;2.45;;;0.30;99.90;;;;;;4994817;28;20033;-85
2023/04/03 04:01:13;;;;;;;10.68;3.78;;;0.20;99.90;;;;;;4978975;28;20169;-85
2023/04/03 04:03:39;;;;;;;5.13;2.13;;;0.20;99.90;;;;;;4978037;28;20114;-85
2023/04/03 04:06:05;;;;;;;7.00;2.58;;;0.20;99.90;;;;;;4994945;28;20031;-84
2023/04/03 04:08:30;;;;;;;4.95;2.25;;;0.20;99.90;;;;;;4995309;28;20030;-85
2023/04/03 04:10:56;;;;;;;7.95;2.25;;;0.20;99.90;;;;;;4994837;28;20057;-84
2023/04/03 04:13:22;;;;;;;5.30;2.60;;;0.20;99.90;;;;;;4978538;28;20026;-85
2023/04/03 04:15:47;;;;;;;5.00;2.67;;;0.20;99.90;;;;;;4995188;28;20034;-84
2023/04/03 04:18:13;;;;;;;7.68;2.42;;;0.20;99.90;;;;;;4977730;28;20030;-84
2023/04/03 04:20:39;;;;;;;8.90;2.10;;;0.20;99.90;;;;;;4995426;28;20069;-85
2023/04/03 04:23:04;;;;;;;8.27;2.50;;;0.20;99.90;;;;;;4995184;28;20106;-84
2023/04/03 04:25:30;;;;;;;7.60;2.28;;;0.10;99.90;;;;;;4993932;28;20086;-84
2023/04/03 04:27:55;;;;;;;4.85;2.15;;;0.10;99.90;;;;;;4994056;28;20037;-84
2023/04/03 04:30:21;;;;;;;6.10;2.20;;;0.10;99.90;;;;;;4992756;28;20027;-85
2023/04/03 04:32:47;;;;;;;5.60;2.10;;;0.00;99.90;;;;;;4995004;28;20108;-85
2023/04/03 04:35:12;;;;;;;6.13;2.20;;;0.00;99.90;;;;;;4995064;28;20085;-85
2023/04/03 04:37:38;;;;;;;4.90;2.20;;;-0.10;99.90;;;;;;4994628;28;20141;-85
2023/04/03 04:40:04;;;;;;;8.48;2.35;;;0.00;99.90;;;;;;4994829;28;20108;-85
2023/04/03 04:42:30;;;;;;;5.60;2.42;;;-0.10;99.90;;;;;;4995956;28;20557;-85
2023/04/03 04:44:55;;;;;;;6.30;2.38;;;-0.10;99.90;;;;;;4977786;28;20053;-84
2023/04/03 04:47:21;;;;;;;9.80;2.80;;;-0.20;99.90;;;;;;4977728;28;20034;-84
2023/04/03 04:49:47;;;;;;;8.88;2.90;;;-0.20;99.90;;;;;;4993694;28;20053;-84
2023/04/03 04:52:13;;;;;;;8.18;2.50;;;-0.20;99.90;;;;;;4977758;28;20499;-85
2023/04/03 04:54:39;;;;;;;5.90;2.42;;;-0.30;99.90;;;;;;4977425;28;20496;-85
2023/04/03 04:57:05;;;;;;;5.00;2.30;;;-0.20;99.90;;;;;;4993634;28;20137;-85
2023/04/03 04:59:31;;;;;;;9.95;2.35;;;-0.30;99.90;;;;;;4993359;28;20097;-85
2023/04/03 05:01:56;;;;;;;6.47;2.55;;;-0.30;99.90;;;;;;4995259;28;20100;-85
2023/04/03 05:04:22;;;;;;;9.98;2.70;;;-0.30;99.90;;;;;;4995163;28;20030;-85
2023/04/03 05:06:48;;;;;;;10.35;4.03;;;-0.40;99.90;;;;;;4980947;28;20127;-85
2023/04/03 05:09:13;;;;;;;7.13;3.40;;;-0.40;99.90;;;;;;4967749;28;20480;-86
2023/04/03 05:11:39;;;;;;;10.32;3.10;;;-0.40;99.90;;;;;;4986608;28;20456;-85
2023/04/03 05:14:06;;;;;;;9.00;2.83;;;-0.40;99.90;;;;;;4975927;28;20121;-85
2023/04/03 05:16:32;;;;;;;9.48;3.10;;;-0.50;99.90;;;;;;4975757;28;20022;-86
2023/04/03 05:18:58;;;;;;;11.95;2.70;;;-0.40;99.90;;;;;;4976112;28;20046;-85
2023/04/03 05:21:25;;;;;;;5.75;2.65;;;-0.40;99.90;;;;;;4992071;28;20499;-85
2023/04/03 05:23:52;;;;;;;8.75;2.67;;;-0.40;99.90;;;;;;4976488;28;20109;-85
2023/04/03 05:26:17;;;;;;;12.05;2.95;;;-0.50;99.90;;;;;;4993368;28;20038;-85
2023/04/03 05:28:43;;;;;;;9.25;3.05;;;-0.50;99.90;;;;;;4992797;28;20519;-85
2023/04/03 05:31:09;;;;;;;7.68;2.95;;;-0.50;99.90;;;;;;4994320;28;20023;-84
2023/04/03 05:33:35;;;;;;;6.93;2.47;;;-0.50;99.90;;;;;;4976554;28;20117;-85
2023/04/03 05:36:04;;;;;;;5.32;2.63;;;-0.50;99.90;;;;;;4992601;28;20031;-85
2023/04/03 05:38:31;;;;;;;5.77;2.77;;;-0.40;99.90;;;;;;4992698;28;20191;-86
2023/04/03 05:40:57;;;;;;;9.32;2.33;;;-0.40;99.90;;;;;;4992920;28;20277;-86
2023/04/03 05:43:22;;;;;;;5.85;2.65;;;-0.40;99.90;;;;;;4976755;28;20073;-86
2023/04/03 05:45:48;;;;;;;9.50;2.42;;;-0.50;99.90;;;;;;4976602;28;20034;-85
2023/04/03 05:48:14;;;;;;;7.60;3.95;;;-0.40;99.90;;;;;;4976149;28;20053;-87
2023/04/03 05:50:42;;;;;;;7.45;3.70;;;-0.50;99.90;;;;;;4976105;28;20048;-86
2023/04/03 05:53:20;;;;;;;6.38;3.45;;;-0.50;99.90;;;;;;4993495;28;20114;-86
2023/04/03 05:55:46;;;;;;;10.05;3.63;;;-0.60;99.90;;;;;;4976302;28;20057;-84
2023/04/03 05:58:12;;;;;;;9.93;3.83;;;-0.60;99.90;;;;;;4990330;28;20038;-86
2023/04/03 06:00:38;;;;;;;9.32;4.07;;;-0.60;99.90;;;;;;4991402;28;20085;-86
2023/04/03 06:03:03;;;;;;;8.35;3.53;;;-0.60;99.90;;;;;;4975595;28;20109;-86
2023/04/03 06:05:29;;;;;;;7.05;3.50;;;-0.70;99.90;;;;;;4972915;28;20022;-86
2023/04/03 06:07:55;;;;;;;9.27;3.78;;;-0.60;99.90;;;;;;4975062;28;20026;-86
2023/04/03 06:10:21;;;;;;;10.75;4.13;;;-0.60;99.90;;;;;;4969760;28;20049;-86
2023/04/03 06:12:46;;;;;;;10.38;3.92;;;-0.60;99.90;;;;;;4972986;28;20019;-85
2023/04/03 06:15:12;;;;;;;6.50;3.75;;;-0.60;99.90;;;;;;4973379;28;20361;-85
2023/04/03 06:17:38;;;;;;;10.90;3.78;;;-0.60;99.90;;;;;;4971517;28;20023;-83
2023/04/03 06:20:04;;;;;;;5.13;3.10;;;-0.60;99.90;;;;;;4971484;28;20044;-84
2023/04/03 06:22:30;;;;;;;11.25;3.22;;;-0.50;99.90;;;;;;4969073;28;20019;-85
2023/04/03 06:24:57;;;;;;;9.98;3.80;;;-0.50;99.90;;;;;;4972484;28;20511;-85
2023/04/03 06:27:23;;;;;;;6.13;2.63;;;-0.50;99.90;;;;;;4972466;28;20042;-83
2023/04/03 06:29:49;;;;;;;9.68;3.35;;;-0.40;99.90;;;;;;4972724;28;20034;-84
2023/04/03 06:32:15;;;;;;;7.93;2.95;;;-0.40;99.90;;;;;;4974394;28;20056;-83
2023/04/03 06:34:41;;;;;;;5.07;2.72;;;-0.30;99.90;;;;;;4976504;28;20078;-83
2023/04/03 06:37:15;;;;;;;10.80;3.53;;;-0.30;99.90;;;;;;4989806;28;20027;-84
2023/04/03 06:39:41;;;;;;;12.73;4.05;;;-0.20;99.90;;;;;;4983643;28;20073;-87
2023/04/03 06:42:07;;;;;;;12.90;4.95;;;-0.20;99.90;;;;;;4956465;28;20122;-84
2023/04/03 06:44:34;;;;;;;10.65;4.28;;;-0.20;99.90;;;;;;4972383;28;20492;-84
2023/04/03 06:47:00;;;;;;;10.82;4.38;;;-0.20;99.90;;;;;;4973464;28;20077;-84
2023/04/03 06:49:28;;;;;;;11.10;4.35;;;-0.20;99.90;;;;;;4972575;28;20037;-84
2023/04/03 06:51:55;;;;;;;10.10;4.20;;;-0.20;99.90;;;;;;4956397;28;20065;-85
2023/04/03 06:54:20;;;;;;;11.63;3.90;;;-0.10;99.90;;;;;;4974192;28;20393;-85
2023/04/03 06:56:46;;;;;;;16.48;4.25;;;-0.10;99.90;;;;;;4959692;28;20034;-86
2023/04/03 06:59:13;;;;;;;10.60;4.32;;;0.00;99.90;;;;;;4957233;28;20122;-85
2023/04/03 07:01:40;;;;;;;11.55;3.83;;;0.10;99.90;;;;;;4974293;28;20027;-85
2023/04/03 07:04:07;;;;;;;14.18;4.63;;;0.10;99.90;;;;;;4973263;28;20037;-85
2023/04/03 07:06:33;;;;;;;13.65;4.68;;;0.20;99.90;;;;;;4973423;28;20023;-85
2023/04/03 07:08:59;;;;;;;14.90;5.32;;;0.20;99.90;;;;;;4973211;28;20026;-85
2023/04/03 07:11:26;;;;;;;14.82;4.85;;;0.30;99.90;;;;;;4972544;28;20496;-85
2023/04/03 07:13:52;;;;;;;15.98;4.35;;;0.40;99.90;;;;;;4972847;28;20122;-85
2023/04/03 07:16:18;;;;;;;11.95;4.43;;;0.50;99.90;;;;;;4972521;28;20023;-85
2023/04/03 07:18:45;;;;;;;10.73;4.63;;;0.50;99.90;;;;;;4972149;28;20027;-85
2023/04/03 07:21:11;;;;;;;13.65;4.55;;;0.60;99.90;;;;;;4972256;28;20049;-85
2023/04/03 07:23:37;;;;;;;12.52;6.28;;;0.70;99.90;;;;;;4972300;28;20109;-85
2023/04/03 07:26:03;;;;;;;13.88;5.47;;;0.80;99.90;;;;;;4972548;28;20031;-85
2023/04/03 07:28:29;;;;;;;11.52;5.38;;;0.80;99.90;;;;;;4973518;28;20109;-85
2023/04/03 07:31:08;;;;;;;12.75;5.07;;;0.90;99.90;;;;;;4969323;28;20030;-85
2023/04/03 07:33:34;;;;;;;13.75;5.32;;;1.00;99.90;;;;;;4970993;28;20122;-85
2023/04/03 07:36:00;;;;;;;18.90;5.85;;;1.10;99.90;;;;;;4971874;28;20110;-85
2023/04/03 07:38:27;;;;;;;16.85;6.20;;;1.20;99.90;;;;;;4971970;28;20118;-85
2023/04/03 07:40:52;;;;;;;16.27;6.95;;;1.20;99.90;;;;;;4972346;28;20109;-85
2023/04/03 07:43:20;;;;;;;20.55;7.63;;;1.30;99.90;;;;;;4974103;28;20133;-84
2023/04/03 07:45:49;;;;;;;14.77;6.10;;;1.40;99.90;;;;;;4971949;28;20106;-85
2023/04/03 07:48:20;;;;;;;16.38;5.53;;;1.40;99.90;;;;;;4970748;28;20019;-85
2023/04/03 07:50:46;;;;;;;13.55;5.70;;;1.60;99.90;;;;;;4971361;28;20033;-85
2023/04/03 07:53:12;;;;;;;16.08;5.70;;;1.60;99.90;;;;;;4955392;28;20026;-85
2023/04/03 07:55:42;;;;;;;20.35;6.00;;;1.70;99.90;;;;;;4971678;28;20022;-84
2023/04/03 07:58:09;;;;;;;;;;;1.80;99.90;;;;;;4956021;28;20476;-85
2023/04/03 08:00:35;;;;;;;12.80;4.75;;;1.90;99.90;;;;;;4970993;28;19918;-85
2023/04/03 08:03:01;;;;;;;17.45;5.10;;;2.00;99.90;;;;;;4971238;28;20119;-85
2023/04/03 08:05:26;;;;;;;16.20;5.60;;;2.00;99.90;;;;;;4973898;28;20137;-86
2023/04/03 08:07:52;;;;;;;13.57;4.63;;;2.10;99.90;;;;;;4971733;28;20030;-86
2023/04/03 08:10:18;;;;;;;11.65;5.05;;;2.20;99.90;;;;;;4968784;28;20047;-86
2023/04/03 08:12:46;;;;;;;18.98;6.47;;;2.30;99.90;;;;;;4965888;28;20027;-86
2023/04/03 08:15:12;;;;;;;18.27;6.05;;;2.40;99.90;;;;;;4963486;28;20504;-86
2023/04/03 08:17:38;;;;;;;14.65;5.35;;;2.50;99.90;;;;;;4968160;28;20031;-86
2023/04/03 08:20:08;;;;;;;11.95;4.65;;;2.70;99.90;;;;;;4971132;28;20091;-86
2023/04/03 08:22:34;;;;;;;18.63;4.47;;;2.80;99.90;;;;;;4955482;28;20074;-86
2023/04/03 08:25:01;;;;;;;18.42;5.25;;;2.90;99.90;;;;;;4955690;29;20038;-86
2023/04/03 08:27:28;;;;;;;12.75;3.78;;;3.00;99.90;;;;;;4955238;29;20035;-86
2023/04/03 08:29:54;;;;;;;13.82;5.53;;;3.20;99.90;;;;;;4955341;28;20454;-86
2023/04/03 08:32:20;;;;;;;9.82;4.70;;;3.40;99.90;;;;;;4968180;28;20476;-86
2023/04/03 08:34:46;;;;;;;19.40;6.25;;;3.50;99.90;;;;;;4955753;28;20029;-86
2023/04/03 08:37:12;;;;;;;14.60;5.45;;;3.70;99.90;;;;;;4966629;28;20052;-86
2023/04/03 08:39:38;;;;;;;13.55;3.60;;;3.80;99.90;;;;;;4966347;28;20031;-85
2023/04/03 08:42:27;;;;;;;9.00;2.40;;;4.00;99.90;;;;;;4970353;28;20075;-86
2023/04/03 08:45:03;;;;;;;8.88;2.65;;;4.20;99.90;;;;;;4966506;28;20065;-86
2023/04/03 08:47:32;;;;;;;7.72;1.58;;;4.40;99.90;;;;;;4964269;28;20015;-86
2023/04/03 08:50:02;;;;;;;9.60;1.70;;;4.60;99.90;;;;;;4959395;28;20098;-86
2023/04/03 08:52:58;;;;;;;6.85;2.53;;;4.70;99.90;;;;;;4977564;28;20118;-86
2023/04/03 08:55:47;;;;;;;13.95;1.98;;;4.90;99.90;;;;;;4979028;28;20066;-86
2023/04/03 08:58:20;;;;;;;6.20;1.30;;;5.00;99.90;;;;;;4978938;28;20069;-86
2023/04/03 09:01:04;;;;;;;9.68;1.20;;;5.20;99.90;;;;;;4974486;28;20505;-87
2023/04/03 09:03:37;;;;;;;4.95;1.20;;;5.30;99.90;;;;;;4978590;28;20035;-86
2023/04/03 09:06:10;;;;;;;8.18;0.98;;;5.30;99.90;;;;;;4975805;28;20090;-87
2023/04/03 09:09:01;;;;;;;5.20;1.15;;;5.40;99.90;;;;;;4977520;28;20022;-87
2023/04/03 09:11:41;;;;;;;5.93;1.27;;;5.50;99.90;;;;;;4986550;28;20121;-86
2023/04/03 09:14:22;;;;;;;7.53;1.30;;;5.60;99.90;;;;;;4995444;28;20038;-86
2023/04/03 09:17:01;;;;;;;4.30;1.10;;;5.80;99.90;;;;;;4997437;28;20018;-86
2023/04/03 09:19:47;;;;;;;8.20;1.42;;;5.90;99.90;;;;;;4997176;28;20045;-86
2023/04/03 09:22:23;;;;;;;7.00;1.13;;;6.00;99.90;;;;;;4998047;28;20030;-87
2023/04/03 09:25:13;;;;;;;7.20;1.17;;;6.00;99.90;;;;;;4994519;28;20117;-86
2023/04/03 09:27:40;;;;;;;5.82;1.45;;;6.20;99.90;;;;;;4995781;28;20038;-87
2023/04/03 09:30:09;;;;;;;10.98;1.45;;;6.30;99.90;;;;;;4998510;28;20044;-86
2023/04/03 09:32:36;;;;;;;8.60;1.90;;;6.50;99.90;;;;;;4990946;28;20041;-87
2023/04/03 09:35:21;;;;;;;4.72;1.75;;;6.70;99.90;;;;;;4986690;28;20026;-87
2023/04/03 09:37:51;;;;;;;6.93;1.70;;;7.00;99.90;;;;;;4991125;28;20453;-87
2023/04/03 09:40:26;;;;;;;6.18;1.10;;;7.10;99.90;;;;;;4978842;28;20038;-88
2023/04/03 09:42:54;;;;;;;4.85;1.45;;;7.20;99.90;;;;;;4978917;28;20029;-87
2023/04/03 09:45:31;;;;;;;6.97;1.38;;;7.50;99.90;;;;;;4978990;28;20026;-87
2023/04/03 09:48:12;;;;;;;3.70;1.17;;;7.60;99.90;;;;;;4978488;28;20022;-87
2023/04/03 09:50:48;;;;;;;6.75;1.70;;;7.70;99.90;;;;;;4995742;28;20030;-87
2023/04/03 09:53:35;;;;;;;7.38;1.60;;;7.70;99.90;;;;;;4978802;28;20025;-87
2023/04/03 09:56:23;;;;;;;6.00;2.03;;;7.70;99.90;;;;;;4978312;28;20030;-86
2023/04/03 09:59:06;;;;;;;4.82;1.40;;;7.80;99.90;;;;;;4964177;28;20095;-86
2023/04/03 10:01:34;;;;;;;13.65;2.45;;;8.00;99.90;;;;;;5007483;28;20029;-85
2023/04/03 10:04:19;;;;;;;9.50;1.70;;;8.30;99.90;;;;;;4996599;28;20029;-86
2023/04/03 10:06:50;;;;;;;5.75;2.00;;;8.60;99.90;;;;;;4996816;28;20364;-85
2023/04/03 10:09:27;;;;;;;8.68;2.17;;;8.80;99.90;;;;;;4996440;28;20442;-87
2023/04/03 10:12:10;;;;;;;5.65;2.10;;;8.90;99.90;;;;;;4975783;28;20053;-85
2023/04/03 10:14:52;;;;;;;5.28;1.60;;;9.00;98.60;;;;;;4975792;28;20023;-86
2023/04/03 10:17:22;;;;;;;6.72;1.77;;;9.10;98.20;;;;;;4974158;28;20110;-87
2023/04/03 10:20:37;;;;;;;7.43;1.92;;;9.10;98.00;;;;;;4973042;28;20031;-88
2023/04/03 10:23:22;;;;;;;8.98;2.53;;;9.10;97.60;;;;;;4957037;28;20031;-88
2023/04/03 10:25:48;;;;;;;8.02;1.60;;;9.30;97.70;;;;;;4969690;28;20038;-86
2023/04/03 10:28:27;;;;;;;6.20;1.52;;;9.60;97.90;;;;;;4955837;28;20061;-86
2023/04/03 10:31:20;;;;;;;8.48;1.40;;;9.80;96.60;;;;;;4971118;28;20023;-87
2023/04/03 10:34:06;;;;;;;6.28;1.80;;;9.90;94.90;;;;;;4966711;28;20019;-88
2023/04/03 10:37:06;;;;;;;6.22;1.30;;;10.00;94.20;;;;;;4953015;28;20019;-87
2023/04/03 10:39:50;;;;;;;5.33;1.47;;;10.10;94.10;;;;;;4956456;28;20432;-87
2023/04/03 10:42:39;;;;;;;6.28;1.38;;;10.30;93.40;;;;;;4967765;28;20035;-87
2023/04/03 10:45:20;;;;;;;4.85;1.65;;;10.60;92.70;;;;;;4972355;28;20045;-87
2023/04/03 10:48:07;;;;;;;9.20;1.33;;;10.80;91.40;;;;;;4973521;28;20018;-87
2023/04/03 10:50:54;;;;;;;10.48;1.30;;;10.80;91.20;;;;;;4955694;28;20035;-87
2023/04/03 10:53:39;;;;;;;8.50;1.40;;;11.00;90.70;;;;;;4955465;28;20070;-87
2023/04/03 10:56:34;;;;;;;7.38;1.85;;;11.20;90.60;;;;;;4971823;28;20034;-86
2023/04/03 10:59:13;;;;;;;6.65;1.10;;;11.30;89.30;;;;;;4946307;28;20456;-87
2023/04/03 11:01:43;;;;;;;5.65;1.42;;;11.30;87.10;;;;;;4973153;28;20046;-87
2023/04/03 11:04:11;;;;;;;5.88;1.77;;;11.30;86.50;;;;;;4970926;28;20090;-86
2023/04/03 11:07:04;;;;;;;4.82;1.08;;;11.40;85.80;;;;;;4955943;28;20393;-85
2023/04/03 11:09:37;;;;;;;5.45;1.20;;;11.50;85.70;;;;;;4949171;28;20042;-87
2023/04/03 11:12:23;;;;;;;6.03;1.48;;;11.70;85.80;;;;;;4952421;28;20102;-86
2023/04/03 11:14:51;;;;;;;9.18;1.50;;;11.90;84.70;;;;;;4952728;29;20063;-86
2023/04/03 11:17:23;;;;;;;7.82;1.55;;;12.00;83.40;;;;;;4951137;28;20099;-87
2023/04/03 11:19:54;;;;;;;7.07;1.50;;;12.30;82.90;;;;;;4951363;29;20102;-86
2023/04/03 11:22:26;;;;;;;8.65;1.35;;;12.40;81.00;;;;;;4935115;29;20040;-86
2023/04/03 11:25:12;;;;;;;7.93;1.77;;;12.40;79.60;;;;;;4951052;29;20532;-86
2023/04/03 11:27:53;;;;;;;5.75;1.65;;;12.40;79.80;;;;;;4938094;29;20039;-85
2023/04/03 11:30:28;;;;;;;9.95;1.58;;;12.40;79.00;;;;;;4952310;29;20520;-86
2023/04/03 11:33:00;;;;;;;6.28;1.20;;;12.50;78.90;;;;;;4954617;28;20031;-86
2023/04/03 11:35:26;;;;;;;5.30;1.27;;;12.50;78.40;;;;;;4953199;29;20027;-86
2023/04/03 11:37:53;;;;;;;6.90;1.73;;;12.70;78.40;;;;;;4953615;28;20122;-86
2023/04/03 11:40:34;;;;;;;8.18;1.80;;;12.90;78.00;;;;;;4964648;28;20102;-87
2023/04/03 11:43:10;;;;;;;12.18;1.65;;;13.20;77.40;;;;;;4976561;28;20045;-87
2023/04/03 11:46:03;;;;;;;3.67;1.77;;;13.30;76.10;;;;;;4976442;28;20037;-86
2023/04/03 11:48:32;;;;;;;6.25;1.60;;;13.40;74.70;;;;;;4975923;28;20054;-87
2023/04/03 11:51:22;;;;;;;11.45;2.03;;;13.30;74.70;;;;;;4960252;28;20031;-87
2023/04/03 11:53:48;;;;;;;7.25;1.50;;;13.40;75.10;;;;;;4960298;28;20113;-88
2023/04/03 11:56:23;;;;;;;5.68;1.35;;;13.50;75.40;;;;;;4976128;28;20081;-87
2023/04/03 11:59:10;;;;;;;4.93;1.55;;;13.70;75.10;;;;;;4976100;28;20055;-87
2023/04/03 12:01:46;;;;;;;4.65;1.35;;;13.90;74.90;;;;;;4975873;28;20396;-88
2023/04/03 12:04:15;;;;;;;10.13;1.80;;;14.00;73.40;;;;;;4976328;28;20026;-87
2023/04/03 12:06:42;;;;;;;7.07;1.70;;;14.00;72.60;;;;;;4975673;28;20034;-88
2023/04/03 12:09:25;;;;;;;8.90;1.60;;;13.90;71.10;;;;;;4975912;28;20400;-87
2023/04/03 12:11:52;;;;;;;6.22;2.20;;;13.70;70.60;;;;;;4976109;28;20416;-87
2023/04/03 12:14:18;;;;;;;5.88;1.80;;;13.60;70.90;;;;;;4975699;28;20041;-88
2023/04/03 12:16:47;;;;;;;5.95;1.70;;;13.80;71.60;;;;;;4976529;28;20441;-87
2023/04/03 12:19:31;;;;;;;6.00;2.00;;;13.90;71.20;;;;;;4959551;28;20101;-88
2023/04/03 12:21:57;;;;;;;6.35;1.70;;;14.10;71.50;;;;;;4975746;28;20035;-88
2023/04/03 12:24:31;;;;;;;6.32;1.40;;;14.50;71.50;;;;;;4959960;28;20027;-87
2023/04/03 12:26:57;;;;;;;5.63;1.55;;;14.70;70.10;;;;;;4977106;28;20027;-87
2023/04/03 12:29:42;;;;;;;6.72;1.95;;;14.70;69.60;;;;;;4974915;28;20093;-88
2023/04/03 12:32:46;;;;;;;6.85;1.65;;;14.80;69.40;;;;;;4975757;28;20448;-88
2023/04/03 12:35:43;;;;;;;9.85;2.08;;;15.00;69.70;;;;;;4975157;28;20038;-87
2023/04/03 12:38:38;;;;;;;12.40;4.78;;;15.40;69.20;;;;;;4976544;28;20074;-86
2023/04/03 12:41:31;;;;;;;9.52;2.90;;;15.60;68.20;;;;;;4960189;28;20054;-88
2023/04/03 12:44:43;;;;;;;9.77;3.13;;;15.40;66.60;;;;;;4959255;28;20023;-86
2023/04/03 12:47:29;;;;;;;7.57;1.60;;;15.20;67.20;;;;;;4958354;28;20041;-87
2023/04/03 12:49:55;;;;;;;10.57;2.78;;;15.30;66.60;;;;;;4972322;28;20035;-86
2023/04/03 12:52:32;;;;;;;5.70;1.60;;;15.50;66.00;;;;;;4974608;28;20027;-87
2023/04/03 12:55:03;;;;;;;10.63;3.40;;;15.60;65.30;;;;;;4949407;28;20045;-88
2023/04/03 12:57:30;;;;;;;6.75;2.70;;;15.50;64.90;;;;;;4974748;28;20031;-87
2023/04/03 12:59:56;;;;;;;4.95;1.85;;;15.60;65.30;;;;;;4975425;28;20039;-87
2023/04/03 13:02:31;;;;;;;7.53;1.67;;;15.60;65.00;;;;;;4966740;28;20101;-87
2023/04/03 13:05:04;;;;;;;6.30;1.70;;;15.70;64.80;;;;;;4973590;28;20065;-87
2023/04/03 13:07:37;;;;;;;6.15;1.50;;;15.50;64.00;;;;;;4974448;28;20054;-87